sensor_id;sensor_type;location;lat;lon;timestamp;P1;durP1;ratioP1;P2;durP2;ratioP2
55037;SDS011;40937;53.594;10.034;2023-07-29T00:00:47;6.13;;;5.68;;
55037;SDS011;40937;53.594;10.034;2023-07-29T00:03:14;6.60;;;6.03;;
55037;SDS011;40937;53.594;10.034;2023-07-29T00:05:43;6.47;;;5.97;;
55037;SDS011;40937;53.594;10.034;2023-07-29T00:08:10;7.68;;;6.60;;
55037;SDS011;40937;53.594;10.034;2023-07-29T00:10:38;6.32;;;5.82;;
55037;SDS011;40937;53.594;10.034;2023-07-29T00:13:05;6.30;;;5.82;;
55037;SDS011;40937;53.594;10.034;2023-07-29T00:15:35;6.38;;;5.88;;
55037;SDS011;40937;53.594;10.034;2023-07-29T00:18:02;7.32;;;6.00;;
55037;SDS011;40937;53.594;10.034;2023-07-29T00:20:29;7.18;;;6.53;;
55037;SDS011;40937;53.594;10.034;2023-07-29T00:22:58;7.85;;;7.10;;
55037;SDS011;40937;53.594;10.034;2023-07-29T00:25:27;7.40;;;6.75;;
55037;SDS011;40937;53.594;10.034;2023-07-29T00:27:55;7.13;;;6.43;;
55037;SDS011;40937;53.594;10.034;2023-07-29T00:30:22;7.80;;;6.55;;
55037;SDS011;40937;53.594;10.034;2023-07-29T00:32:50;8.55;;;7.88;;
55037;SDS011;40937;53.594;10.034;2023-07-29T00:35:17;7.40;;;6.70;;
55037;SDS011;40937;53.594;10.034;2023-07-29T00:37:47;9.15;;;6.95;;
55037;SDS011;40937;53.594;10.034;2023-07-29T00:40:17;8.93;;;7.25;;
55037;SDS011;40937;53.594;10.034;2023-07-29T00:42:47;9.27;;;7.18;;
55037;SDS011;40937;53.594;10.034;2023-07-29T00:45:15;7.68;;;6.97;;
55037;SDS011;40937;53.594;10.034;2023-07-29T00:47:44;10.55;;;7.25;;
55037;SDS011;40937;53.594;10.034;2023-07-29T00:50:11;7.60;;;7.00;;
55037;SDS011;40937;53.594;10.034;2023-07-29T00:52:40;8.57;;;7.88;;
55037;SDS011;40937;53.594;10.034;2023-07-29T00:55:08;8.02;;;7.32;;
55037;SDS011;40937;53.594;10.034;2023-07-29T00:57:37;8.05;;;7.35;;
55037;SDS011;40937;53.594;10.034;2023-07-29T01:00:05;8.73;;;7.35;;
55037;SDS011;40937;53.594;10.034;2023-07-29T01:02:35;10.15;;;7.68;;
55037;SDS011;40937;53.594;10.034;2023-07-29T01:05:02;7.93;;;7.25;;
55037;SDS011;40937;53.594;10.034;2023-07-29T01:07:32;8.13;;;7.43;;
55037;SDS011;40937;53.594;10.034;2023-07-29T01:10:18;8.52;;;6.63;;
55037;SDS011;40937;53.594;10.034;2023-07-29T01:12:54;7.68;;;6.82;;
55037;SDS011;40937;53.594;10.034;2023-07-29T01:15:29;7.38;;;6.78;;
55037;SDS011;40937;53.594;10.034;2023-07-29T01:18:04;7.47;;;6.78;;
55037;SDS011;40937;53.594;10.034;2023-07-29T01:20:37;7.40;;;6.78;;
55037;SDS011;40937;53.594;10.034;2023-07-29T01:23:07;6.15;;;5.65;;
55037;SDS011;40937;53.594;10.034;2023-07-29T01:25:36;6.90;;;6.30;;
55037;SDS011;40937;53.594;10.034;2023-07-29T01:28:05;6.90;;;6.35;;
55037;SDS011;40937;53.594;10.034;2023-07-29T01:30:35;6.45;;;5.95;;
55037;SDS011;40937;53.594;10.034;2023-07-29T01:33:09;7.35;;;5.90;;
55037;SDS011;40937;53.594;10.034;2023-07-29T01:35:40;7.18;;;6.53;;
55037;SDS011;40937;53.594;10.034;2023-07-29T01:38:13;6.50;;;5.90;;
55037;SDS011;40937;53.594;10.034;2023-07-29T01:40:45;8.73;;;6.10;;
55037;SDS011;40937;53.594;10.034;2023-07-29T01:43:14;6.57;;;5.50;;
55037;SDS011;40937;53.594;10.034;2023-07-29T01:45:44;6.40;;;5.90;;
55037;SDS011;40937;53.594;10.034;2023-07-29T01:48:12;11.00;;;5.47;;
55037;SDS011;40937;53.594;10.034;2023-07-29T01:50:39;5.88;;;5.47;;
55037;SDS011;40937;53.594;10.034;2023-07-29T01:53:07;5.90;;;5.30;;
55037;SDS011;40937;53.594;10.034;2023-07-29T01:55:34;6.13;;;5.53;;
55037;SDS011;40937;53.594;10.034;2023-07-29T01:58:03;6.82;;;6.10;;
55037;SDS011;40937;53.594;10.034;2023-07-29T02:00:34;6.93;;;6.18;;
55037;SDS011;40937;53.594;10.034;2023-07-29T02:03:01;7.18;;;6.50;;
55037;SDS011;40937;53.594;10.034;2023-07-29T02:05:28;9.60;;;6.47;;
55037;SDS011;40937;53.594;10.034;2023-07-29T02:07:56;6.90;;;5.75;;
55037;SDS011;40937;53.594;10.034;2023-07-29T02:10:23;8.60;;;6.72;;
55037;SDS011;40937;53.594;10.034;2023-07-29T02:12:50;6.68;;;6.18;;
55037;SDS011;40937;53.594;10.034;2023-07-29T02:15:19;7.05;;;6.45;;
55037;SDS011;40937;53.594;10.034;2023-07-29T02:17:46;6.57;;;6.00;;
55037;SDS011;40937;53.594;10.034;2023-07-29T02:20:14;6.50;;;5.93;;
55037;SDS011;40937;53.594;10.034;2023-07-29T02:22:42;7.13;;;6.50;;
55037;SDS011;40937;53.594;10.034;2023-07-29T02:25:09;7.35;;;6.75;;
55037;SDS011;40937;53.594;10.034;2023-07-29T02:27:36;6.90;;;6.30;;
55037;SDS011;40937;53.594;10.034;2023-07-29T02:30:04;7.28;;;6.57;;
55037;SDS011;40937;53.594;10.034;2023-07-29T02:32:34;6.97;;;6.50;;
55037;SDS011;40937;53.594;10.034;2023-07-29T02:35:02;8.40;;;6.82;;
55037;SDS011;40937;53.594;10.034;2023-07-29T02:37:30;7.25;;;6.63;;
55037;SDS011;40937;53.594;10.034;2023-07-29T02:39:57;6.90;;;6.50;;
55037;SDS011;40937;53.594;10.034;2023-07-29T02:42:25;7.13;;;6.43;;
55037;SDS011;40937;53.594;10.034;2023-07-29T02:44:53;7.30;;;6.80;;
55037;SDS011;40937;53.594;10.034;2023-07-29T02:47:20;7.85;;;7.05;;
55037;SDS011;40937;53.594;10.034;2023-07-29T02:49:49;6.70;;;6.30;;
55037;SDS011;40937;53.594;10.034;2023-07-29T02:52:16;6.38;;;5.97;;
55037;SDS011;40937;53.594;10.034;2023-07-29T02:54:44;6.45;;;6.05;;
55037;SDS011;40937;53.594;10.034;2023-07-29T02:57:13;6.93;;;6.25;;
55037;SDS011;40937;53.594;10.034;2023-07-29T02:59:40;6.80;;;6.30;;
55037;SDS011;40937;53.594;10.034;2023-07-29T03:02:08;6.70;;;6.20;;
55037;SDS011;40937;53.594;10.034;2023-07-29T03:04:35;6.47;;;6.03;;
55037;SDS011;40937;53.594;10.034;2023-07-29T03:07:04;6.60;;;6.10;;
55037;SDS011;40937;53.594;10.034;2023-07-29T03:09:32;7.15;;;6.47;;
55037;SDS011;40937;53.594;10.034;2023-07-29T03:12:00;6.13;;;5.80;;
55037;SDS011;40937;53.594;10.034;2023-07-29T03:14:27;7.30;;;6.53;;
55037;SDS011;40937;53.594;10.034;2023-07-29T03:16:54;7.72;;;6.95;;
55037;SDS011;40937;53.594;10.034;2023-07-29T03:19:22;6.65;;;6.25;;
55037;SDS011;40937;53.594;10.034;2023-07-29T03:21:49;6.95;;;6.45;;
55037;SDS011;40937;53.594;10.034;2023-07-29T03:24:18;7.95;;;7.25;;
55037;SDS011;40937;53.594;10.034;2023-07-29T03:26:45;8.20;;;6.65;;
55037;SDS011;40937;53.594;10.034;2023-07-29T03:29:13;6.57;;;6.10;;
55037;SDS011;40937;53.594;10.034;2023-07-29T03:31:40;7.82;;;7.25;;
55037;SDS011;40937;53.594;10.034;2023-07-29T03:34:07;7.10;;;6.60;;
55037;SDS011;40937;53.594;10.034;2023-07-29T03:36:37;7.57;;;6.90;;
55037;SDS011;40937;53.594;10.034;2023-07-29T03:39:04;10.40;;;7.20;;
55037;SDS011;40937;53.594;10.034;2023-07-29T03:41:34;7.95;;;7.15;;
55037;SDS011;40937;53.594;10.034;2023-07-29T03:44:02;7.28;;;6.82;;
55037;SDS011;40937;53.594;10.034;2023-07-29T03:46:29;7.85;;;7.32;;
55037;SDS011;40937;53.594;10.034;2023-07-29T03:48:58;7.78;;;7.28;;
55037;SDS011;40937;53.594;10.034;2023-07-29T03:51:25;8.32;;;7.82;;
55037;SDS011;40937;53.594;10.034;2023-07-29T03:53:52;8.30;;;7.65;;
55037;SDS011;40937;53.594;10.034;2023-07-29T03:56:20;8.90;;;8.10;;
55037;SDS011;40937;53.594;10.034;2023-07-29T03:58:48;8.40;;;7.80;;
55037;SDS011;40937;53.594;10.034;2023-07-29T04:01:16;8.73;;;8.13;;
55037;SDS011;40937;53.594;10.034;2023-07-29T04:03:44;8.75;;;8.10;;
55037;SDS011;40937;53.594;10.034;2023-07-29T04:06:12;8.65;;;8.00;;
55037;SDS011;40937;53.594;10.034;2023-07-29T04:08:39;12.60;;;9.75;;
55037;SDS011;40937;53.594;10.034;2023-07-29T04:11:07;9.85;;;9.00;;
55037;SDS011;40937;53.594;10.034;2023-07-29T04:13:35;9.43;;;8.80;;
55037;SDS011;40937;53.594;10.034;2023-07-29T04:16:04;10.52;;;9.52;;
55037;SDS011;40937;53.594;10.034;2023-07-29T04:18:32;11.20;;;10.07;;
55037;SDS011;40937;53.594;10.034;2023-07-29T04:21:00;11.05;;;9.75;;
55037;SDS011;40937;53.594;10.034;2023-07-29T04:23:27;10.77;;;9.98;;
55037;SDS011;40937;53.594;10.034;2023-07-29T04:25:55;10.95;;;10.07;;
55037;SDS011;40937;53.594;10.034;2023-07-29T04:28:22;12.85;;;11.57;;
55037;SDS011;40937;53.594;10.034;2023-07-29T04:30:50;12.35;;;11.15;;
55037;SDS011;40937;53.594;10.034;2023-07-29T04:33:19;13.70;;;12.40;;
55037;SDS011;40937;53.594;10.034;2023-07-29T04:35:46;11.80;;;10.90;;
55037;SDS011;40937;53.594;10.034;2023-07-29T04:38:14;12.75;;;11.40;;
55037;SDS011;40937;53.594;10.034;2023-07-29T04:40:41;12.48;;;11.38;;
55037;SDS011;40937;53.594;10.034;2023-07-29T04:43:08;12.20;;;11.20;;
55037;SDS011;40937;53.594;10.034;2023-07-29T04:45:36;11.98;;;11.20;;
55037;SDS011;40937;53.594;10.034;2023-07-29T04:48:08;14.68;;;13.48;;
55037;SDS011;40937;53.594;10.034;2023-07-29T04:50:37;16.08;;;14.57;;
55037;SDS011;40937;53.594;10.034;2023-07-29T04:53:04;20.70;;;18.70;;
55037;SDS011;40937;53.594;10.034;2023-07-29T04:55:32;19.98;;;18.15;;
55037;SDS011;40937;53.594;10.034;2023-07-29T04:57:59;20.70;;;18.70;;
55037;SDS011;40937;53.594;10.034;2023-07-29T05:00:26;22.50;;;20.42;;
55037;SDS011;40937;53.594;10.034;2023-07-29T05:02:54;22.95;;;20.95;;
55037;SDS011;40937;53.594;10.034;2023-07-29T05:05:21;24.42;;;21.80;;
55037;SDS011;40937;53.594;10.034;2023-07-29T05:07:50;22.10;;;20.20;;
55037;SDS011;40937;53.594;10.034;2023-07-29T05:10:18;22.55;;;20.75;;
55037;SDS011;40937;53.594;10.034;2023-07-29T05:12:46;21.80;;;19.85;;
55037;SDS011;40937;53.594;10.034;2023-07-29T05:15:13;21.38;;;19.52;;
55037;SDS011;40937;53.594;10.034;2023-07-29T05:17:41;22.90;;;20.83;;
55037;SDS011;40937;53.594;10.034;2023-07-29T05:20:09;22.73;;;20.73;;
55037;SDS011;40937;53.594;10.034;2023-07-29T05:22:37;22.80;;;20.65;;
55037;SDS011;40937;53.594;10.034;2023-07-29T05:25:06;20.92;;;19.13;;
55037;SDS011;40937;53.594;10.034;2023-07-29T05:27:35;20.77;;;19.08;;
55037;SDS011;40937;53.594;10.034;2023-07-29T05:30:02;22.52;;;20.30;;
55037;SDS011;40937;53.594;10.034;2023-07-29T05:32:30;20.48;;;18.65;;
55037;SDS011;40937;53.594;10.034;2023-07-29T05:34:58;19.30;;;17.70;;
55037;SDS011;40937;53.594;10.034;2023-07-29T05:37:25;20.60;;;18.55;;
55037;SDS011;40937;53.594;10.034;2023-07-29T05:39:53;19.42;;;17.92;;
55037;SDS011;40937;53.594;10.034;2023-07-29T05:42:21;20.02;;;18.25;;
55037;SDS011;40937;53.594;10.034;2023-07-29T05:44:49;20.98;;;18.65;;
55037;SDS011;40937;53.594;10.034;2023-07-29T05:47:19;19.52;;;17.85;;
55037;SDS011;40937;53.594;10.034;2023-07-29T05:49:47;18.88;;;17.38;;
55037;SDS011;40937;53.594;10.034;2023-07-29T05:52:14;21.17;;;18.95;;
55037;SDS011;40937;53.594;10.034;2023-07-29T05:54:42;21.50;;;19.55;;
55037;SDS011;40937;53.594;10.034;2023-07-29T05:57:09;20.67;;;18.90;;
55037;SDS011;40937;53.594;10.034;2023-07-29T05:59:39;20.20;;;18.60;;
55037;SDS011;40937;53.594;10.034;2023-07-29T06:02:07;18.35;;;16.52;;
55037;SDS011;40937;53.594;10.034;2023-07-29T06:04:35;20.73;;;19.08;;
55037;SDS011;40937;53.594;10.034;2023-07-29T06:07:02;19.80;;;17.95;;
55037;SDS011;40937;53.594;10.034;2023-07-29T06:09:30;20.65;;;18.98;;
55037;SDS011;40937;53.594;10.034;2023-07-29T06:11:58;21.17;;;19.30;;
55037;SDS011;40937;53.594;10.034;2023-07-29T06:14:25;21.25;;;19.67;;
55037;SDS011;40937;53.594;10.034;2023-07-29T06:16:54;22.85;;;21.00;;
55037;SDS011;40937;53.594;10.034;2023-07-29T06:19:21;21.83;;;20.20;;
55037;SDS011;40937;53.594;10.034;2023-07-29T06:21:49;19.02;;;17.50;;
55037;SDS011;40937;53.594;10.034;2023-07-29T06:24:16;22.55;;;20.85;;
55037;SDS011;40937;53.594;10.034;2023-07-29T06:26:44;23.05;;;21.13;;
55037;SDS011;40937;53.594;10.034;2023-07-29T06:29:11;27.05;;;22.58;;
55037;SDS011;40937;53.594;10.034;2023-07-29T06:31:38;25.58;;;22.42;;
55037;SDS011;40937;53.594;10.034;2023-07-29T06:34:07;27.23;;;24.83;;
55037;SDS011;40937;53.594;10.034;2023-07-29T06:36:34;27.42;;;24.55;;
55037;SDS011;40937;53.594;10.034;2023-07-29T06:39:02;28.13;;;25.30;;
55037;SDS011;40937;53.594;10.034;2023-07-29T06:41:29;27.52;;;25.33;;
55037;SDS011;40937;53.594;10.034;2023-07-29T06:43:59;26.20;;;23.85;;
55037;SDS011;40937;53.594;10.034;2023-07-29T06:46:27;24.30;;;22.20;;
55037;SDS011;40937;53.594;10.034;2023-07-29T06:48:54;23.63;;;21.33;;
55037;SDS011;40937;53.594;10.034;2023-07-29T06:51:23;24.52;;;22.38;;
55037;SDS011;40937;53.594;10.034;2023-07-29T06:53:50;23.70;;;21.60;;
55037;SDS011;40937;53.594;10.034;2023-07-29T06:56:18;22.63;;;20.75;;
55037;SDS011;40937;53.594;10.034;2023-07-29T06:58:45;22.52;;;20.63;;
55037;SDS011;40937;53.594;10.034;2023-07-29T07:01:12;21.38;;;19.15;;
55037;SDS011;40937;53.594;10.034;2023-07-29T07:03:40;20.95;;;19.23;;
55037;SDS011;40937;53.594;10.034;2023-07-29T07:06:07;21.17;;;19.30;;
55037;SDS011;40937;53.594;10.034;2023-07-29T07:08:36;22.95;;;20.90;;
55037;SDS011;40937;53.594;10.034;2023-07-29T07:11:03;19.85;;;18.05;;
55037;SDS011;40937;53.594;10.034;2023-07-29T07:13:31;19.75;;;18.02;;
55037;SDS011;40937;53.594;10.034;2023-07-29T07:15:58;19.85;;;18.25;;
55037;SDS011;40937;53.594;10.034;2023-07-29T07:18:26;19.67;;;17.95;;
55037;SDS011;40937;53.594;10.034;2023-07-29T07:20:53;19.63;;;18.02;;
55037;SDS011;40937;53.594;10.034;2023-07-29T07:23:21;19.50;;;17.73;;
55037;SDS011;40937;53.594;10.034;2023-07-29T07:25:50;19.65;;;18.05;;
55037;SDS011;40937;53.594;10.034;2023-07-29T07:28:17;18.45;;;16.95;;
55037;SDS011;40937;53.594;10.034;2023-07-29T07:30:44;19.85;;;18.05;;
55037;SDS011;40937;53.594;10.034;2023-07-29T07:33:12;18.42;;;16.65;;
55037;SDS011;40937;53.594;10.034;2023-07-29T07:35:39;18.30;;;16.77;;
55037;SDS011;40937;53.594;10.034;2023-07-29T07:38:08;17.60;;;16.10;;
55037;SDS011;40937;53.594;10.034;2023-07-29T07:40:35;17.52;;;16.02;;
55037;SDS011;40937;53.594;10.034;2023-07-29T07:43:04;16.25;;;14.90;;
55037;SDS011;40937;53.594;10.034;2023-07-29T07:45:32;17.08;;;15.77;;
55037;SDS011;40937;53.594;10.034;2023-07-29T07:48:02;18.15;;;16.67;;
55037;SDS011;40937;53.594;10.034;2023-07-29T07:50:30;18.70;;;16.95;;
55037;SDS011;40937;53.594;10.034;2023-07-29T07:52:58;20.42;;;18.40;;
55037;SDS011;40937;53.594;10.034;2023-07-29T07:55:25;20.90;;;18.88;;
55037;SDS011;40937;53.594;10.034;2023-07-29T07:57:52;20.40;;;18.35;;
55037;SDS011;40937;53.594;10.034;2023-07-29T08:00:22;18.50;;;16.95;;
55037;SDS011;40937;53.594;10.034;2023-07-29T08:02:49;18.77;;;17.17;;
55037;SDS011;40937;53.594;10.034;2023-07-29T08:05:17;17.92;;;16.40;;
55037;SDS011;40937;53.594;10.034;2023-07-29T08:07:45;17.67;;;16.05;;
55037;SDS011;40937;53.594;10.034;2023-07-29T08:10:12;18.50;;;16.67;;
55037;SDS011;40937;53.594;10.034;2023-07-29T08:12:39;19.58;;;17.75;;
55037;SDS011;40937;53.594;10.034;2023-07-29T08:15:07;19.70;;;17.75;;
55037;SDS011;40937;53.594;10.034;2023-07-29T08:17:36;18.42;;;16.80;;
55037;SDS011;40937;53.594;10.034;2023-07-29T08:20:03;16.73;;;15.23;;
55037;SDS011;40937;53.594;10.034;2023-07-29T08:22:32;16.42;;;14.60;;
55037;SDS011;40937;53.594;10.034;2023-07-29T08:24:59;16.63;;;14.77;;
55037;SDS011;40937;53.594;10.034;2023-07-29T08:27:27;14.85;;;13.70;;
55037;SDS011;40937;53.594;10.034;2023-07-29T08:29:54;15.80;;;14.40;;
55037;SDS011;40937;53.594;10.034;2023-07-29T08:32:21;15.90;;;14.80;;
55037;SDS011;40937;53.594;10.034;2023-07-29T08:34:50;16.13;;;14.60;;
55037;SDS011;40937;53.594;10.034;2023-07-29T08:37:18;16.00;;;14.40;;
55037;SDS011;40937;53.594;10.034;2023-07-29T08:39:45;16.10;;;14.73;;
55037;SDS011;40937;53.594;10.034;2023-07-29T08:42:12;16.80;;;15.18;;
55037;SDS011;40937;53.594;10.034;2023-07-29T08:44:43;14.48;;;13.18;;
55037;SDS011;40937;53.594;10.034;2023-07-29T08:47:11;14.88;;;13.57;;
55037;SDS011;40937;53.594;10.034;2023-07-29T08:49:39;15.05;;;13.75;;
55037;SDS011;40937;53.594;10.034;2023-07-29T08:52:09;14.35;;;13.05;;
55037;SDS011;40937;53.594;10.034;2023-07-29T08:54:38;13.77;;;12.65;;
55037;SDS011;40937;53.594;10.034;2023-07-29T08:57:06;14.02;;;12.75;;
55037;SDS011;40937;53.594;10.034;2023-07-29T08:59:33;12.10;;;10.70;;
55037;SDS011;40937;53.594;10.034;2023-07-29T09:02:04;14.55;;;13.35;;
55037;SDS011;40937;53.594;10.034;2023-07-29T09:04:32;12.48;;;11.57;;
55037;SDS011;40937;53.594;10.034;2023-07-29T09:07:00;15.27;;;13.30;;
55037;SDS011;40937;53.594;10.034;2023-07-29T09:09:29;15.07;;;13.50;;
55037;SDS011;40937;53.594;10.034;2023-07-29T09:11:57;18.10;;;14.52;;
55037;SDS011;40937;53.594;10.034;2023-07-29T09:14:24;14.40;;;13.30;;
55037;SDS011;40937;53.594;10.034;2023-07-29T09:16:51;15.35;;;14.13;;
55037;SDS011;40937;53.594;10.034;2023-07-29T09:19:19;14.23;;;13.10;;
55037;SDS011;40937;53.594;10.034;2023-07-29T09:21:47;15.27;;;13.77;;
55037;SDS011;40937;53.594;10.034;2023-07-29T09:24:15;14.30;;;12.95;;
55037;SDS011;40937;53.594;10.034;2023-07-29T09:26:49;16.08;;;14.88;;
55037;SDS011;40937;53.594;10.034;2023-07-29T09:29:21;14.38;;;13.35;;
55037;SDS011;40937;53.594;10.034;2023-07-29T09:31:49;14.70;;;13.43;;
55037;SDS011;40937;53.594;10.034;2023-07-29T09:34:16;13.88;;;12.65;;
55037;SDS011;40937;53.594;10.034;2023-07-29T09:36:43;14.73;;;13.32;;
55037;SDS011;40937;53.594;10.034;2023-07-29T09:39:11;13.18;;;12.00;;
55037;SDS011;40937;53.594;10.034;2023-07-29T09:41:39;13.02;;;11.82;;
55037;SDS011;40937;53.594;10.034;2023-07-29T09:44:07;12.88;;;11.95;;
55037;SDS011;40937;53.594;10.034;2023-07-29T09:46:37;13.00;;;11.98;;
55037;SDS011;40937;53.594;10.034;2023-07-29T09:49:06;12.63;;;11.50;;
55037;SDS011;40937;53.594;10.034;2023-07-29T09:51:36;13.18;;;11.98;;
55037;SDS011;40937;53.594;10.034;2023-07-29T09:54:05;11.77;;;10.73;;
55037;SDS011;40937;53.594;10.034;2023-07-29T09:56:32;10.85;;;10.00;;
55037;SDS011;40937;53.594;10.034;2023-07-29T09:59:00;12.38;;;11.38;;
55037;SDS011;40937;53.594;10.034;2023-07-29T10:01:29;11.43;;;10.60;;
55037;SDS011;40937;53.594;10.034;2023-07-29T10:03:56;10.02;;;9.32;;
55037;SDS011;40937;53.594;10.034;2023-07-29T10:06:25;10.68;;;9.70;;
55037;SDS011;40937;53.594;10.034;2023-07-29T10:08:53;8.90;;;8.20;;
55037;SDS011;40937;53.594;10.034;2023-07-29T10:11:22;9.57;;;8.73;;
55037;SDS011;40937;53.594;10.034;2023-07-29T10:13:53;8.63;;;7.60;;
55037;SDS011;40937;53.594;10.034;2023-07-29T10:16:21;7.57;;;6.97;;
55037;SDS011;40937;53.594;10.034;2023-07-29T10:18:52;6.63;;;6.13;;
55037;SDS011;40937;53.594;10.034;2023-07-29T10:21:20;6.50;;;5.63;;
55037;SDS011;40937;53.594;10.034;2023-07-29T10:23:49;5.88;;;5.45;;
55037;SDS011;40937;53.594;10.034;2023-07-29T10:26:23;5.55;;;5.22;;
55037;SDS011;40937;53.594;10.034;2023-07-29T10:28:52;5.40;;;5.05;;
55037;SDS011;40937;53.594;10.034;2023-07-29T10:31:22;5.35;;;4.93;;
55037;SDS011;40937;53.594;10.034;2023-07-29T10:33:51;5.00;;;4.72;;
55037;SDS011;40937;53.594;10.034;2023-07-29T10:36:19;5.57;;;5.07;;
55037;SDS011;40937;53.594;10.034;2023-07-29T10:38:47;4.72;;;4.32;;
55037;SDS011;40937;53.594;10.034;2023-07-29T10:41:14;4.28;;;3.97;;
55037;SDS011;40937;53.594;10.034;2023-07-29T10:43:42;4.65;;;4.30;;
55037;SDS011;40937;53.594;10.034;2023-07-29T10:46:16;4.35;;;3.97;;
55037;SDS011;40937;53.594;10.034;2023-07-29T10:48:44;4.85;;;4.40;;
55037;SDS011;40937;53.594;10.034;2023-07-29T10:51:24;4.60;;;4.13;;
55037;SDS011;40937;53.594;10.034;2023-07-29T10:53:53;4.57;;;4.27;;
55037;SDS011;40937;53.594;10.034;2023-07-29T10:56:26;4.70;;;4.40;;
55037;SDS011;40937;53.594;10.034;2023-07-29T10:58:55;4.22;;;4.03;;
55037;SDS011;40937;53.594;10.034;2023-07-29T11:01:28;4.57;;;4.28;;
55037;SDS011;40937;53.594;10.034;2023-07-29T11:09:59;4.57;;;4.28;;
55037;SDS011;40937;53.594;10.034;2023-07-29T11:12:34;4.45;;;3.72;;
55037;SDS011;40937;53.594;10.034;2023-07-29T11:15:11;4.07;;;3.60;;
55037;SDS011;40937;53.594;10.034;2023-07-29T11:17:41;3.85;;;3.53;;
55037;SDS011;40937;53.594;10.034;2023-07-29T11:20:12;3.83;;;3.40;;
55037;SDS011;40937;53.594;10.034;2023-07-29T11:22:40;3.92;;;3.70;;
55037;SDS011;40937;53.594;10.034;2023-07-29T11:25:09;3.50;;;3.30;;
55037;SDS011;40937;53.594;10.034;2023-07-29T11:27:37;3.50;;;3.30;;
55037;SDS011;40937;53.594;10.034;2023-07-29T11:30:06;3.85;;;3.45;;
55037;SDS011;40937;53.594;10.034;2023-07-29T11:32:35;3.45;;;3.25;;
55037;SDS011;40937;53.594;10.034;2023-07-29T11:35:04;3.88;;;2.78;;
55037;SDS011;40937;53.594;10.034;2023-07-29T11:37:34;3.05;;;2.55;;
55037;SDS011;40937;53.594;10.034;2023-07-29T11:40:02;2.70;;;2.60;;
55037;SDS011;40937;53.594;10.034;2023-07-29T11:42:31;4.28;;;2.47;;
55037;SDS011;40937;53.594;10.034;2023-07-29T11:45:00;3.20;;;2.45;;
55037;SDS011;40937;53.594;10.034;2023-07-29T11:47:29;2.50;;;2.30;;
55037;SDS011;40937;53.594;10.034;2023-07-29T11:49:58;2.78;;;2.58;;
55037;SDS011;40937;53.594;10.034;2023-07-29T11:52:26;3.05;;;2.72;;
55037;SDS011;40937;53.594;10.034;2023-07-29T11:54:56;3.00;;;2.80;;
55037;SDS011;40937;53.594;10.034;2023-07-29T11:57:24;4.57;;;2.67;;
55037;SDS011;40937;53.594;10.034;2023-07-29T11:59:51;3.25;;;2.95;;
55037;SDS011;40937;53.594;10.034;2023-07-29T12:02:20;2.97;;;2.78;;
55037;SDS011;40937;53.594;10.034;2023-07-29T12:04:48;3.17;;;2.90;;
55037;SDS011;40937;53.594;10.034;2023-07-29T12:07:16;3.30;;;3.05;;
55037;SDS011;40937;53.594;10.034;2023-07-29T12:09:45;3.55;;;2.92;;
55037;SDS011;40937;53.594;10.034;2023-07-29T12:12:14;5.18;;;2.95;;
55037;SDS011;40937;53.594;10.034;2023-07-29T12:14:45;3.38;;;2.65;;
55037;SDS011;40937;53.594;10.034;2023-07-29T12:17:13;2.85;;;2.72;;
55037;SDS011;40937;53.594;10.034;2023-07-29T12:19:41;2.75;;;2.60;;
55037;SDS011;40937;53.594;10.034;2023-07-29T12:22:09;4.15;;;3.38;;
55037;SDS011;40937;53.594;10.034;2023-07-29T12:24:39;2.70;;;2.50;;
55037;SDS011;40937;53.594;10.034;2023-07-29T12:27:10;2.60;;;2.40;;
55037;SDS011;40937;53.594;10.034;2023-07-29T12:29:43;2.53;;;2.33;;
55037;SDS011;40937;53.594;10.034;2023-07-29T12:32:12;2.75;;;2.47;;
55037;SDS011;40937;53.594;10.034;2023-07-29T12:34:39;2.17;;;2.08;;
55037;SDS011;40937;53.594;10.034;2023-07-29T12:37:07;2.22;;;2.03;;
55037;SDS011;40937;53.594;10.034;2023-07-29T12:39:35;2.40;;;2.30;;
55037;SDS011;40937;53.594;10.034;2023-07-29T12:42:06;2.50;;;2.30;;
55037;SDS011;40937;53.594;10.034;2023-07-29T12:44:35;2.20;;;2.10;;
55037;SDS011;40937;53.594;10.034;2023-07-29T12:47:06;2.00;;;1.90;;
55037;SDS011;40937;53.594;10.034;2023-07-29T12:49:34;2.22;;;2.03;;
55037;SDS011;40937;53.594;10.034;2023-07-29T12:52:02;2.10;;;2.00;;
55037;SDS011;40937;53.594;10.034;2023-07-29T12:54:29;1.90;;;1.80;;
55037;SDS011;40937;53.594;10.034;2023-07-29T12:56:57;1.73;;;1.63;;
55037;SDS011;40937;53.594;10.034;2023-07-29T12:59:24;3.45;;;1.80;;
55037;SDS011;40937;53.594;10.034;2023-07-29T13:01:52;2.28;;;1.90;;
55037;SDS011;40937;53.594;10.034;2023-07-29T13:04:21;1.50;;;1.40;;
55037;SDS011;40937;53.594;10.034;2023-07-29T13:06:48;1.67;;;1.58;;
55037;SDS011;40937;53.594;10.034;2023-07-29T13:09:15;1.58;;;1.48;;
55037;SDS011;40937;53.594;10.034;2023-07-29T13:11:43;1.80;;;1.70;;
55037;SDS011;40937;53.594;10.034;2023-07-29T13:14:10;1.67;;;1.58;;
55037;SDS011;40937;53.594;10.034;2023-07-29T13:16:38;2.00;;;1.63;;
55037;SDS011;40937;53.594;10.034;2023-07-29T13:19:05;1.15;;;1.15;;
55037;SDS011;40937;53.594;10.034;2023-07-29T13:21:34;1.20;;;1.20;;
55037;SDS011;40937;53.594;10.034;2023-07-29T13:24:02;1.90;;;1.60;;
55037;SDS011;40937;53.594;10.034;2023-07-29T13:26:30;1.70;;;1.60;;
55037;SDS011;40937;53.594;10.034;2023-07-29T13:28:57;3.35;;;1.20;;
55037;SDS011;40937;53.594;10.034;2023-07-29T13:31:24;3.08;;;1.70;;
55037;SDS011;40937;53.594;10.034;2023-07-29T13:33:52;1.60;;;1.50;;
55037;SDS011;40937;53.594;10.034;2023-07-29T13:36:19;3.25;;;1.52;;
55037;SDS011;40937;53.594;10.034;2023-07-29T13:38:48;2.38;;;1.98;;
55037;SDS011;40937;53.594;10.034;2023-07-29T13:41:15;2.08;;;1.52;;
55037;SDS011;40937;53.594;10.034;2023-07-29T13:43:43;2.55;;;1.83;;
55037;SDS011;40937;53.594;10.034;2023-07-29T13:46:10;1.90;;;1.80;;
55037;SDS011;40937;53.594;10.034;2023-07-29T13:48:37;1.70;;;1.60;;
55037;SDS011;40937;53.594;10.034;2023-07-29T13:51:05;1.73;;;1.63;;
55037;SDS011;40937;53.594;10.034;2023-07-29T13:53:33;3.08;;;1.60;;
55037;SDS011;40937;53.594;10.034;2023-07-29T13:56:01;2.13;;;1.50;;
55037;SDS011;40937;53.594;10.034;2023-07-29T13:58:29;1.75;;;1.65;;
55037;SDS011;40937;53.594;10.034;2023-07-29T14:01:05;1.95;;;1.75;;
55037;SDS011;40937;53.594;10.034;2023-07-29T14:03:32;1.55;;;1.48;;
55037;SDS011;40937;53.594;10.034;2023-07-29T14:06:03;2.05;;;1.58;;
55037;SDS011;40937;53.594;10.034;2023-07-29T14:08:30;3.67;;;1.90;;
55037;SDS011;40937;53.594;10.034;2023-07-29T14:11:02;1.60;;;1.50;;
55037;SDS011;40937;53.594;10.034;2023-07-29T14:13:30;1.50;;;1.40;;
55037;SDS011;40937;53.594;10.034;2023-07-29T14:16:02;3.10;;;1.90;;
55037;SDS011;40937;53.594;10.034;2023-07-29T14:18:30;1.88;;;1.75;;
55037;SDS011;40937;53.594;10.034;2023-07-29T14:21:00;1.63;;;1.52;;
55037;SDS011;40937;53.594;10.034;2023-07-29T14:23:30;3.28;;;1.67;;
55037;SDS011;40937;53.594;10.034;2023-07-29T14:25:58;2.70;;;2.00;;
55037;SDS011;40937;53.594;10.034;2023-07-29T14:28:27;2.30;;;2.10;;
55037;SDS011;40937;53.594;10.034;2023-07-29T14:30:55;1.73;;;1.50;;
55037;SDS011;40937;53.594;10.034;2023-07-29T14:33:25;1.60;;;1.50;;
55037;SDS011;40937;53.594;10.034;2023-07-29T14:35:53;1.92;;;1.63;;